EGPD Airport Information

Runway Information
Runway 05 Length 1893 ft width 151 ft
Elevation 203 ft Threshold 0 ft Heading 46
Runway 23 Length 1893 ft Width 151 ft
Elevation 190 ft Threshold 0 ft Heading 226
Runway 14 Length 2165 ft width 75 ft
Elevation 200 ft Threshold 0 ft Heading 139
Runway 32 Length 2165 ft Width 75 ft
Elevation 197 ft Threshold 0 ft Heading 319
Runway 16 Length 6001 ft width 151 ft
Elevation 203 ft Threshold 0 ft Heading 158
Runway 34 Length 6001 ft Width 151 ft
Elevation 215 ft Threshold 0 ft Heading 338
Runway 18 Length 853 ft width 75 ft
Elevation 200 ft Threshold 0 ft Heading 179
Runway 36 Length 853 ft Width 75 ft
Elevation 199 ft Threshold 0 ft Heading 359
Airport Frequencies
Type APP Name ABERDEEN A Frequency 119.05 MHZ
Type ATIS Name ABERDEEN A Frequency 114.3 MHZ
Type GND Name ABERDEEN G Frequency 121.7 MHZ
Type INFO Name ABERDEEN I Frequency 135.175 MHZ
Type TWR Name ABERDEEN T Frequency 118.1 MHZ
Airport Navaids
Type VOR-DME Name Aberdeen Frequency 114300 KHZ
Type NDB Name Aberdeen Frequency 336 KHZ
Type NDB Name Aberdeen/Dyce Frequency 348 KHZ
Airport Weather Information & NOTAM
ADDS - METARS form results

(1904 UTC 22 June 2018)
 
METAR text: EGPD 221850Z AUTO 35006KT 9999 SCT043 15/08 Q1028 NOSIG
Conditions at: EGPD (ABERDEEN/DYCE , GB) observed 1850 UTC 22 June 2018
Temperature: 15.0°C (59°F)
Dewpoint: 8.0°C (46°F) [RH = 63%]
Pressure (altimeter): 30.35 inches Hg (1028.0 mb)
Winds: from the N (350 degrees) at 7 MPH (6 knots; 3.1 m/s)
Visibility: 6 or more miles (10+ km)
Ceiling: at least 12,000 feet AGL
Clouds: scattered clouds at 4300 feet AGL
Weather: no significant weather observed at this time

METAR text: EGPD 221820Z AUTO 33009KT 9999 BKN045 15/08 Q1027 NOSIG
Conditions at: EGPD (ABERDEEN/DYCE , GB) observed 1820 UTC 22 June 2018
Temperature: 15.0°C (59°F)
Dewpoint: 8.0°C (46°F) [RH = 63%]
Pressure (altimeter): 30.32 inches Hg (1027.0 mb)
Winds: from the NNW (330 degrees) at 10 MPH (9 knots; 4.7 m/s)
Visibility: 6 or more miles (10+ km)
Ceiling: 4500 feet AGL
Clouds: broken clouds at 4500 feet AGL
Weather: no significant weather observed at this time